Terminal Aerodrome Forecast
Issued by NWS Sterling, VA

Home | Current Version | Previous Version | Text Only | Print | Product List | Glossary On
Versions: 1 2 3 4 5 6 7 8 9 10 11 12 13 14 15 16 17 18 19 20 21 22
000
FTUS41 KLWX 200700 AAA
TAFBWI
TAF AMD
KBWI 200754Z 2008/2112 00000KT P6SM SCT029 BKN070
     FM201400 16004KT P6SM SCT030
     FM201800 16008KT P6SM FEW060
     FM210100 15004KT P6SM SCT090
     FM210600 00000KT P6SM SCT250=

USA.gov is the U.S. government's official web portal to all federal, state and local government web resources and services.